sensor_id;sensor_type;location;lat;lon;timestamp;pressure;altitude;pressure_sealevel;temperature;humidity
75013;BME280;63567;49.956;20.130;2023-03-01T00:00:46;98250.38;;;-3.18;68.72
75013;BME280;63567;49.956;20.130;2023-03-01T00:03:11;98243.69;;;-3.22;68.99
75013;BME280;63567;49.956;20.130;2023-03-01T00:05:43;98260.81;;;-3.21;68.91
75013;BME280;63567;49.956;20.130;2023-03-01T00:08:08;98258.44;;;-3.26;69.29
75013;BME280;63567;49.956;20.130;2023-03-01T00:10:34;98250.16;;;-3.33;69.80
75013;BME280;63567;49.956;20.130;2023-03-01T00:12:59;98252.81;;;-3.34;69.41
75013;BME280;63567;49.956;20.130;2023-03-01T00:15:24;98256.38;;;-3.37;69.41
75013;BME280;63567;49.956;20.130;2023-03-01T00:17:49;98256.47;;;-3.38;69.34
75013;BME280;63567;49.956;20.130;2023-03-01T00:20:15;98250.66;;;-3.43;69.58
75013;BME280;63567;49.956;20.130;2023-03-01T00:22:40;98253.31;;;-3.45;69.10
75013;BME280;63567;49.956;20.130;2023-03-01T00:25:06;98243.97;;;-3.47;70.08
75013;BME280;63567;49.956;20.130;2023-03-01T00:27:31;98245.78;;;-3.49;69.86
75013;BME280;63567;49.956;20.130;2023-03-01T00:29:56;98251.09;;;-3.53;69.84
75013;BME280;63567;49.956;20.130;2023-03-01T00:32:21;98236.63;;;-3.55;70.14
75013;BME280;63567;49.956;20.130;2023-03-01T00:34:47;98236.84;;;-3.60;70.25
75013;BME280;63567;49.956;20.130;2023-03-01T00:37:20;98233.41;;;-3.60;70.54
75013;BME280;63567;49.956;20.130;2023-03-01T00:39:46;98233.50;;;-3.62;70.86
75013;BME280;63567;49.956;20.130;2023-03-01T00:42:11;98237.78;;;-3.62;70.25
75013;BME280;63567;49.956;20.130;2023-03-01T00:44:36;98233.63;;;-3.65;70.62
75013;BME280;63567;49.956;20.130;2023-03-01T00:47:01;98238.00;;;-3.67;71.02
75013;BME280;63567;49.956;20.130;2023-03-01T00:49:27;98233.00;;;-3.70;70.92
75013;BME280;63567;49.956;20.130;2023-03-01T00:51:53;98234.00;;;-3.73;71.51
75013;BME280;63567;49.956;20.130;2023-03-01T00:54:18;98232.31;;;-3.74;71.79
75013;BME280;63567;49.956;20.130;2023-03-01T00:56:43;98222.97;;;-3.76;71.75
75013;BME280;63567;49.956;20.130;2023-03-01T00:59:08;98222.97;;;-3.76;71.15
75013;BME280;63567;49.956;20.130;2023-03-01T01:01:34;98227.44;;;-3.80;71.49
75013;BME280;63567;49.956;20.130;2023-03-01T01:04:02;98223.97;;;-3.79;71.37
75013;BME280;63567;49.956;20.130;2023-03-01T01:06:30;98218.00;;;-3.79;71.73
75013;BME280;63567;49.956;20.130;2023-03-01T01:08:56;98219.78;;;-3.81;72.30
75013;BME280;63567;49.956;20.130;2023-03-01T01:11:23;98216.72;;;-3.70;75.06
75013;BME280;63567;49.956;20.130;2023-03-01T01:13:49;98212.25;;;-3.67;75.08
75013;BME280;63567;49.956;20.130;2023-03-01T01:16:15;98217.13;;;-3.61;74.85
75013;BME280;63567;49.956;20.130;2023-03-01T01:18:42;98217.63;;;-3.72;75.94
75013;BME280;63567;49.956;20.130;2023-03-01T01:21:11;98209.91;;;-3.72;76.16
75013;BME280;63567;49.956;20.130;2023-03-01T01:23:38;98210.88;;;-3.74;76.27
75013;BME280;63567;49.956;20.130;2023-03-01T01:26:05;98204.63;;;-3.68;76.27
75013;BME280;63567;49.956;20.130;2023-03-01T01:28:31;98199.88;;;-3.78;76.46
75013;BME280;63567;49.956;20.130;2023-03-01T01:30:57;98203.44;;;-3.80;76.86
75013;BME280;63567;49.956;20.130;2023-03-01T01:33:22;98202.13;;;-3.70;76.53
75013;BME280;63567;49.956;20.130;2023-03-01T01:35:47;98197.47;;;-3.62;76.27
75013;BME280;63567;49.956;20.130;2023-03-01T01:38:12;98200.47;;;-3.54;75.83
75013;BME280;63567;49.956;20.130;2023-03-01T01:40:45;98188.03;;;-3.44;75.90
75013;BME280;63567;49.956;20.130;2023-03-01T01:43:36;98191.22;;;-3.39;75.71
75013;BME280;63567;49.956;20.130;2023-03-01T01:46:14;98181.34;;;-3.48;76.07
75013;BME280;63567;49.956;20.130;2023-03-01T01:48:44;98180.66;;;-3.52;76.62
75013;BME280;63567;49.956;20.130;2023-03-01T01:51:13;98187.47;;;-3.51;76.38
75013;BME280;63567;49.956;20.130;2023-03-01T01:53:42;98175.72;;;-3.56;76.79
75013;BME280;63567;49.956;20.130;2023-03-01T01:56:11;98183.19;;;-3.69;77.21
75013;BME280;63567;49.956;20.130;2023-03-01T01:58:41;98183.13;;;-3.67;77.37
75013;BME280;63567;49.956;20.130;2023-03-01T02:01:07;98183.88;;;-3.65;77.74
75013;BME280;63567;49.956;20.130;2023-03-01T02:03:34;98179.66;;;-3.66;77.38
75013;BME280;63567;49.956;20.130;2023-03-01T02:06:12;98184.97;;;-3.71;77.84
75013;BME280;63567;49.956;20.130;2023-03-01T02:08:40;98182.13;;;-3.65;77.47
75013;BME280;63567;49.956;20.130;2023-03-01T02:11:08;98180.47;;;-3.66;78.06
75013;BME280;63567;49.956;20.130;2023-03-01T02:13:34;98174.69;;;-3.71;78.35
75013;BME280;63567;49.956;20.130;2023-03-01T02:16:04;98170.25;;;-3.67;78.42
75013;BME280;63567;49.956;20.130;2023-03-01T02:18:29;98170.03;;;-3.63;78.22
75013;BME280;63567;49.956;20.130;2023-03-01T02:23:30;98176.34;;;-3.51;76.87
75013;BME280;63567;49.956;20.130;2023-03-01T02:26:07;98175.50;;;-3.52;76.75
75013;BME280;63567;49.956;20.130;2023-03-01T02:28:40;98183.94;;;-3.48;76.27
75013;BME280;63567;49.956;20.130;2023-03-01T02:31:09;98189.22;;;-3.51;75.72
75013;BME280;63567;49.956;20.130;2023-03-01T02:33:53;98186.84;;;-3.56;75.37
75013;BME280;63567;49.956;20.130;2023-03-01T02:36:24;98191.25;;;-3.58;74.72
75013;BME280;63567;49.956;20.130;2023-03-01T02:38:52;98189.63;;;-3.60;74.45
75013;BME280;63567;49.956;20.130;2023-03-01T02:41:19;98193.19;;;-3.63;75.00
75013;BME280;63567;49.956;20.130;2023-03-01T02:43:45;98186.50;;;-3.67;74.66
75013;BME280;63567;49.956;20.130;2023-03-01T02:46:28;98187.38;;;-3.66;74.68
75013;BME280;63567;49.956;20.130;2023-03-01T02:48:56;98179.84;;;-3.71;74.46
75013;BME280;63567;49.956;20.130;2023-03-01T02:51:56;98179.06;;;-3.73;73.94
75013;BME280;63567;49.956;20.130;2023-03-01T02:54:46;98176.81;;;-3.79;74.26
75013;BME280;63567;49.956;20.130;2023-03-01T02:57:16;98177.13;;;-3.87;74.40
75013;BME280;63567;49.956;20.130;2023-03-01T02:59:42;98180.91;;;-3.94;75.30
75013;BME280;63567;49.956;20.130;2023-03-01T03:02:19;98182.44;;;-4.09;77.07
75013;BME280;63567;49.956;20.130;2023-03-01T03:05:23;98188.19;;;-4.04;76.40
75013;BME280;63567;49.956;20.130;2023-03-01T03:07:48;98181.59;;;-4.09;77.10
75013;BME280;63567;49.956;20.130;2023-03-01T03:10:16;98173.53;;;-4.02;76.08
75013;BME280;63567;49.956;20.130;2023-03-01T03:12:44;98178.03;;;-4.07;76.86
75013;BME280;63567;49.956;20.130;2023-03-01T03:15:10;98181.50;;;-4.08;76.79
75013;BME280;63567;49.956;20.130;2023-03-01T03:17:38;98184.56;;;-4.00;76.04
75013;BME280;63567;49.956;20.130;2023-03-01T03:20:05;98174.84;;;-3.93;75.42
75013;BME280;63567;49.956;20.130;2023-03-01T03:22:31;98176.53;;;-3.92;75.00
75013;BME280;63567;49.956;20.130;2023-03-01T03:24:59;98171.44;;;-3.94;74.96
75013;BME280;63567;49.956;20.130;2023-03-01T03:27:24;98169.03;;;-3.97;74.78
75013;BME280;63567;49.956;20.130;2023-03-01T03:29:49;98174.28;;;-4.00;74.76
75013;BME280;63567;49.956;20.130;2023-03-01T03:32:14;98177.84;;;-4.02;74.82
75013;BME280;63567;49.956;20.130;2023-03-01T03:34:40;98173.72;;;-4.06;74.49
75013;BME280;63567;49.956;20.130;2023-03-01T03:37:05;98170.38;;;-4.08;75.06
75013;BME280;63567;49.956;20.130;2023-03-01T03:39:50;98166.22;;;-4.11;75.06
75013;BME280;63567;49.956;20.130;2023-03-01T03:42:20;98164.63;;;-4.14;75.17
75013;BME280;63567;49.956;20.130;2023-03-01T03:44:45;98168.03;;;-4.13;74.81
75013;BME280;63567;49.956;20.130;2023-03-01T03:47:10;98165.50;;;-4.15;75.14
75013;BME280;63567;49.956;20.130;2023-03-01T03:49:36;98160.16;;;-4.10;75.52
75013;BME280;63567;49.956;20.130;2023-03-01T03:52:01;98160.94;;;-4.08;76.53
75013;BME280;63567;49.956;20.130;2023-03-01T03:54:26;98164.97;;;-4.02;76.66
75013;BME280;63567;49.956;20.130;2023-03-01T03:56:51;98168.31;;;-4.00;76.80
75013;BME280;63567;49.956;20.130;2023-03-01T03:59:17;98166.34;;;-3.95;77.03
75013;BME280;63567;49.956;20.130;2023-03-01T04:01:42;98164.44;;;-3.90;77.83
75013;BME280;63567;49.956;20.130;2023-03-01T04:04:07;98173.59;;;-3.84;76.90
75013;BME280;63567;49.956;20.130;2023-03-01T04:06:32;98177.69;;;-3.80;76.91
75013;BME280;63567;49.956;20.130;2023-03-01T04:08:58;98177.84;;;-3.83;77.18
75013;BME280;63567;49.956;20.130;2023-03-01T04:11:27;98172.00;;;-3.87;76.65
75013;BME280;63567;49.956;20.130;2023-03-01T04:13:55;98165.25;;;-3.89;76.31
75013;BME280;63567;49.956;20.130;2023-03-01T04:16:21;98165.38;;;-3.93;76.30
75013;BME280;63567;49.956;20.130;2023-03-01T04:18:47;98169.03;;;-3.97;76.15
75013;BME280;63567;49.956;20.130;2023-03-01T04:21:12;98165.69;;;-3.99;75.93
75013;BME280;63567;49.956;20.130;2023-03-01T04:23:38;98170.94;;;-4.02;75.36
75013;BME280;63567;49.956;20.130;2023-03-01T04:26:05;98172.84;;;-4.05;75.60
75013;BME280;63567;49.956;20.130;2023-03-01T04:28:33;98171.97;;;-4.06;75.28
75013;BME280;63567;49.956;20.130;2023-03-01T04:31:03;98166.94;;;-4.07;75.56
75013;BME280;63567;49.956;20.130;2023-03-01T04:33:38;98164.47;;;-4.10;75.48
75013;BME280;63567;49.956;20.130;2023-03-01T04:36:03;98170.75;;;-4.16;77.08
75013;BME280;63567;49.956;20.130;2023-03-01T04:38:30;98169.63;;;-4.10;76.61
75013;BME280;63567;49.956;20.130;2023-03-01T04:40:55;98174.97;;;-4.15;77.73
75013;BME280;63567;49.956;20.130;2023-03-01T04:43:21;98166.94;;;-4.07;77.90
75013;BME280;63567;49.956;20.130;2023-03-01T04:45:46;98172.47;;;-3.98;78.51
75013;BME280;63567;49.956;20.130;2023-03-01T04:48:11;98163.72;;;-3.94;78.27
75013;BME280;63567;49.956;20.130;2023-03-01T04:50:36;98168.66;;;-3.89;77.83
75013;BME280;63567;49.956;20.130;2023-03-01T04:53:02;98162.06;;;-3.95;78.25
75013;BME280;63567;49.956;20.130;2023-03-01T04:55:28;98167.66;;;-3.86;78.05
75013;BME280;63567;49.956;20.130;2023-03-01T04:57:54;98161.47;;;-3.82;77.84
75013;BME280;63567;49.956;20.130;2023-03-01T05:00:20;98156.22;;;-3.79;77.85
75013;BME280;63567;49.956;20.130;2023-03-01T05:02:55;98158.09;;;-3.83;78.01
75013;BME280;63567;49.956;20.130;2023-03-01T05:05:25;98156.28;;;-3.81;78.13
75013;BME280;63567;49.956;20.130;2023-03-01T05:07:55;98148.00;;;-3.87;78.94
75013;BME280;63567;49.956;20.130;2023-03-01T05:10:21;98150.69;;;-3.90;78.51
75013;BME280;63567;49.956;20.130;2023-03-01T05:12:46;98145.31;;;-4.03;78.70
75013;BME280;63567;49.956;20.130;2023-03-01T05:15:12;98140.16;;;-4.22;79.30
75013;BME280;63567;49.956;20.130;2023-03-01T05:17:37;98143.69;;;-4.25;79.97
75013;BME280;63567;49.956;20.130;2023-03-01T05:20:02;98146.53;;;-4.31;79.61
75013;BME280;63567;49.956;20.130;2023-03-01T05:22:32;98140.69;;;-4.35;80.95
75013;BME280;63567;49.956;20.130;2023-03-01T05:24:58;98140.94;;;-4.41;80.46
75013;BME280;63567;49.956;20.130;2023-03-01T05:27:23;98144.44;;;-4.42;80.65
75013;BME280;63567;49.956;20.130;2023-03-01T05:29:48;98134.97;;;-4.41;81.11
75013;BME280;63567;49.956;20.130;2023-03-01T05:32:13;98144.16;;;-4.36;80.21
75013;BME280;63567;49.956;20.130;2023-03-01T05:34:41;98138.88;;;-4.32;80.40
75013;BME280;63567;49.956;20.130;2023-03-01T05:37:06;98143.03;;;-4.30;80.65
75013;BME280;63567;49.956;20.130;2023-03-01T05:39:32;98147.16;;;-4.26;80.85
75013;BME280;63567;49.956;20.130;2023-03-01T05:42:00;98150.44;;;-4.22;80.92
75013;BME280;63567;49.956;20.130;2023-03-01T05:44:29;98154.53;;;-4.18;80.63
75013;BME280;63567;49.956;20.130;2023-03-01T05:46:54;98158.44;;;-4.09;80.35
75013;BME280;63567;49.956;20.130;2023-03-01T05:49:20;98159.28;;;-4.09;79.97
75013;BME280;63567;49.956;20.130;2023-03-01T05:51:50;98161.41;;;-4.00;80.09
75013;BME280;63567;49.956;20.130;2023-03-01T05:54:15;98165.19;;;-3.88;80.09
75013;BME280;63567;49.956;20.130;2023-03-01T05:56:41;98161.91;;;-3.73;78.78
75013;BME280;63567;49.956;20.130;2023-03-01T05:59:06;98162.06;;;-3.58;78.94
75013;BME280;63567;49.956;20.130;2023-03-01T06:01:33;98164.91;;;-3.45;78.67
75013;BME280;63567;49.956;20.130;2023-03-01T06:03:58;98159.13;;;-3.32;78.19
75013;BME280;63567;49.956;20.130;2023-03-01T06:06:24;98155.25;;;-3.23;77.55
75013;BME280;63567;49.956;20.130;2023-03-01T06:08:50;98161.09;;;-3.19;77.94
75013;BME280;63567;49.956;20.130;2023-03-01T06:11:16;98157.16;;;-3.09;78.28
75013;BME280;63567;49.956;20.130;2023-03-01T06:13:44;98153.06;;;-2.96;77.24
75013;BME280;63567;49.956;20.130;2023-03-01T06:16:10;98165.88;;;-2.77;77.15
75013;BME280;63567;49.956;20.130;2023-03-01T06:18:37;98153.78;;;-2.59;76.59
75013;BME280;63567;49.956;20.130;2023-03-01T06:21:03;98158.97;;;-2.43;76.54
75013;BME280;63567;49.956;20.130;2023-03-01T06:23:28;98152.88;;;-2.24;76.42
75013;BME280;63567;49.956;20.130;2023-03-01T06:25:53;98159.63;;;-2.06;75.70
75013;BME280;63567;49.956;20.130;2023-03-01T06:28:18;98155.16;;;-1.87;75.52
75013;BME280;63567;49.956;20.130;2023-03-01T06:30:44;98155.00;;;-1.83;74.11
75013;BME280;63567;49.956;20.130;2023-03-01T06:33:09;98160.16;;;-1.68;74.60
75013;BME280;63567;49.956;20.130;2023-03-01T06:35:34;98156.75;;;-1.52;73.97
75013;BME280;63567;49.956;20.130;2023-03-01T06:38:01;98160.16;;;-1.36;73.79
75013;BME280;63567;49.956;20.130;2023-03-01T06:40:27;98160.81;;;-1.02;72.88
75013;BME280;63567;49.956;20.130;2023-03-01T06:42:53;98161.00;;;-0.75;71.65
75013;BME280;63567;49.956;20.130;2023-03-01T06:45:19;98149.19;;;-0.50;70.67
75013;BME280;63567;49.956;20.130;2023-03-01T06:47:45;98159.75;;;-0.25;70.96
75013;BME280;63567;49.956;20.130;2023-03-01T06:50:11;98148.81;;;-0.01;69.21
75013;BME280;63567;49.956;20.130;2023-03-01T06:52:37;98158.59;;;0.23;68.47
75013;BME280;63567;49.956;20.130;2023-03-01T06:55:02;98155.47;;;0.45;68.74
75013;BME280;63567;49.956;20.130;2023-03-01T06:57:28;98158.88;;;0.59;67.88
75013;BME280;63567;49.956;20.130;2023-03-01T06:59:53;98156.75;;;0.79;67.37
75013;BME280;63567;49.956;20.130;2023-03-01T07:02:19;98161.69;;;0.96;67.12
75013;BME280;63567;49.956;20.130;2023-03-01T07:04:44;98160.63;;;0.86;66.88
75013;BME280;63567;49.956;20.130;2023-03-01T07:07:10;98155.00;;;1.19;65.63
75013;BME280;63567;49.956;20.130;2023-03-01T07:09:35;98153.22;;;0.80;65.41
75013;BME280;63567;49.956;20.130;2023-03-01T07:12:01;98155.97;;;1.04;65.12
75013;BME280;63567;49.956;20.130;2023-03-01T07:14:26;98141.41;;;1.41;64.02
75013;BME280;63567;49.956;20.130;2023-03-01T07:16:53;98133.09;;;1.75;63.77
75013;BME280;63567;49.956;20.130;2023-03-01T07:19:18;98128.53;;;1.78;62.11
75013;BME280;63567;49.956;20.130;2023-03-01T07:21:43;98124.31;;;2.01;62.14
75013;BME280;63567;49.956;20.130;2023-03-01T07:24:09;98119.09;;;2.14;60.77
75013;BME280;63567;49.956;20.130;2023-03-01T07:26:35;98116.88;;;2.21;60.50
75013;BME280;63567;49.956;20.130;2023-03-01T07:29:01;98109.94;;;2.21;60.03
75013;BME280;63567;49.956;20.130;2023-03-01T07:31:27;98113.19;;;2.36;60.25
75013;BME280;63567;49.956;20.130;2023-03-01T07:33:55;98097.13;;;2.18;60.21
75013;BME280;63567;49.956;20.130;2023-03-01T07:36:21;98096.91;;;2.34;58.93
75013;BME280;63567;49.956;20.130;2023-03-01T07:38:46;98094.84;;;2.51;59.34
75013;BME280;63567;49.956;20.130;2023-03-01T07:41:12;98095.44;;;2.54;58.85
75013;BME280;63567;49.956;20.130;2023-03-01T07:43:37;98099.63;;;2.20;59.38
75013;BME280;63567;49.956;20.130;2023-03-01T07:46:03;98092.38;;;2.12;59.42
75013;BME280;63567;49.956;20.130;2023-03-01T07:48:30;98104.09;;;2.18;59.32
75013;BME280;63567;49.956;20.130;2023-03-01T07:50:59;98101.28;;;2.21;59.73
75013;BME280;63567;49.956;20.130;2023-03-01T07:53:24;98105.66;;;2.44;58.26
75013;BME280;63567;49.956;20.130;2023-03-01T07:56:00;98107.72;;;2.52;58.71
75013;BME280;63567;49.956;20.130;2023-03-01T07:58:25;98123.84;;;2.93;56.73
75013;BME280;63567;49.956;20.130;2023-03-01T08:00:50;98116.25;;;3.25;55.51
75013;BME280;63567;49.956;20.130;2023-03-01T08:03:15;98118.41;;;3.42;54.81
75013;BME280;63567;49.956;20.130;2023-03-01T08:05:41;98125.78;;;3.82;54.41
75013;BME280;63567;49.956;20.130;2023-03-01T08:08:06;98126.25;;;4.10;52.95
75013;BME280;63567;49.956;20.130;2023-03-01T08:10:31;98129.41;;;4.36;53.09
75013;BME280;63567;49.956;20.130;2023-03-01T08:12:56;98125.56;;;4.95;53.35
75013;BME280;63567;49.956;20.130;2023-03-01T08:15:22;98118.22;;;5.31;54.27
75013;BME280;63567;49.956;20.130;2023-03-01T08:17:49;98108.50;;;5.64;53.72
75013;BME280;63567;49.956;20.130;2023-03-01T08:20:15;98113.50;;;5.76;52.39
75013;BME280;63567;49.956;20.130;2023-03-01T08:22:41;98119.22;;;5.91;52.92
75013;BME280;63567;49.956;20.130;2023-03-01T08:25:07;98117.00;;;6.08;50.58
75013;BME280;63567;49.956;20.130;2023-03-01T08:27:32;98111.97;;;6.35;49.02
75013;BME280;63567;49.956;20.130;2023-03-01T08:29:57;98113.19;;;6.31;46.76
75013;BME280;63567;49.956;20.130;2023-03-01T08:32:23;98101.91;;;5.90;48.88
75013;BME280;63567;49.956;20.130;2023-03-01T08:34:48;98096.69;;;6.41;48.49
75013;BME280;63567;49.956;20.130;2023-03-01T08:37:13;98093.25;;;6.69;45.78
75013;BME280;63567;49.956;20.130;2023-03-01T08:39:38;98090.38;;;7.11;45.51
75013;BME280;63567;49.956;20.130;2023-03-01T08:42:04;98087.59;;;7.23;45.74
75013;BME280;63567;49.956;20.130;2023-03-01T08:44:29;98083.34;;;6.73;45.77
75013;BME280;63567;49.956;20.130;2023-03-01T08:46:54;98086.34;;;7.27;45.47
75013;BME280;63567;49.956;20.130;2023-03-01T08:49:21;98088.63;;;7.87;44.80
75013;BME280;63567;49.956;20.130;2023-03-01T08:51:47;98087.84;;;8.32;45.50
75013;BME280;63567;49.956;20.130;2023-03-01T08:54:18;98086.78;;;8.70;44.36
75013;BME280;63567;49.956;20.130;2023-03-01T08:56:44;98089.78;;;8.30;43.24
75013;BME280;63567;49.956;20.130;2023-03-01T08:59:11;98089.59;;;8.41;41.46
75013;BME280;63567;49.956;20.130;2023-03-01T09:01:37;98090.31;;;8.61;42.14
75013;BME280;63567;49.956;20.130;2023-03-01T09:04:03;98086.09;;;8.68;41.36
75013;BME280;63567;49.956;20.130;2023-03-01T09:06:30;98092.72;;;8.72;41.19
75013;BME280;63567;49.956;20.130;2023-03-01T09:08:56;98100.00;;;8.78;40.44
75013;BME280;63567;49.956;20.130;2023-03-01T09:11:22;98094.97;;;8.85;41.62
75013;BME280;63567;49.956;20.130;2023-03-01T09:13:48;98097.72;;;9.01;41.79
75013;BME280;63567;49.956;20.130;2023-03-01T09:16:16;98099.31;;;9.64;41.24
75013;BME280;63567;49.956;20.130;2023-03-01T09:18:43;98092.09;;;9.66;37.89
75013;BME280;63567;49.956;20.130;2023-03-01T09:21:13;98092.25;;;9.99;38.79
75013;BME280;63567;49.956;20.130;2023-03-01T09:23:41;98087.38;;;10.21;37.80
75013;BME280;63567;49.956;20.130;2023-03-01T09:26:09;98092.31;;;10.66;38.43
75013;BME280;63567;49.956;20.130;2023-03-01T09:28:35;98084.59;;;10.81;36.69
75013;BME280;63567;49.956;20.130;2023-03-01T09:31:02;98090.50;;;10.67;37.09
75013;BME280;63567;49.956;20.130;2023-03-01T09:33:29;98088.22;;;10.72;37.06
75013;BME280;63567;49.956;20.130;2023-03-01T09:36:06;98097.13;;;11.12;36.26
75013;BME280;63567;49.956;20.130;2023-03-01T09:38:32;98089.13;;;10.46;36.92
75013;BME280;63567;49.956;20.130;2023-03-01T09:40:57;98086.91;;;11.17;36.98
75013;BME280;63567;49.956;20.130;2023-03-01T09:43:42;98089.22;;;11.28;35.21
75013;BME280;63567;49.956;20.130;2023-03-01T09:46:10;98088.50;;;11.59;34.78
75013;BME280;63567;49.956;20.130;2023-03-01T09:48:44;98094.47;;;11.28;33.04
75013;BME280;63567;49.956;20.130;2023-03-01T09:51:20;98092.81;;;11.27;33.32
75013;BME280;63567;49.956;20.130;2023-03-01T09:53:48;98092.66;;;11.45;33.11
75013;BME280;63567;49.956;20.130;2023-03-01T09:56:20;98088.66;;;11.58;34.03
75013;BME280;63567;49.956;20.130;2023-03-01T09:58:52;98092.63;;;11.54;31.18
75013;BME280;63567;49.956;20.130;2023-03-01T10:04:20;98092.16;;;11.50;31.39
75013;BME280;63567;49.956;20.130;2023-03-01T10:09:36;98084.91;;;11.27;31.17
75013;BME280;63567;49.956;20.130;2023-03-01T10:12:06;98093.88;;;11.90;32.77
75013;BME280;63567;49.956;20.130;2023-03-01T10:14:42;98089.63;;;12.21;31.75
75013;BME280;63567;49.956;20.130;2023-03-01T10:17:20;98087.56;;;12.39;30.58
75013;BME280;63567;49.956;20.130;2023-03-01T10:19:49;98086.75;;;12.62;31.55
75013;BME280;63567;49.956;20.130;2023-03-01T10:22:27;98084.53;;;12.97;30.00
75013;BME280;63567;49.956;20.130;2023-03-01T10:24:58;98083.22;;;13.15;29.71
75013;BME280;63567;49.956;20.130;2023-03-01T10:27:45;98078.84;;;13.08;29.93
75013;BME280;63567;49.956;20.130;2023-03-01T10:32:42;98070.03;;;13.53;30.59
75013;BME280;63567;49.956;20.130;2023-03-01T10:35:19;98072.22;;;13.65;30.98
75013;BME280;63567;49.956;20.130;2023-03-01T10:37:58;98072.91;;;13.44;29.44
75013;BME280;63567;49.956;20.130;2023-03-01T10:40:23;98070.28;;;13.06;29.90
75013;BME280;63567;49.956;20.130;2023-03-01T10:42:49;98065.56;;;12.70;29.56
75013;BME280;63567;49.956;20.130;2023-03-01T10:45:38;98070.09;;;12.61;29.65
75013;BME280;63567;49.956;20.130;2023-03-01T10:48:16;98068.75;;;12.65;28.99
75013;BME280;63567;49.956;20.130;2023-03-01T10:50:44;98070.38;;;13.65;29.84
75013;BME280;63567;49.956;20.130;2023-03-01T10:58:29;98057.28;;;14.81;26.34
75013;BME280;63567;49.956;20.130;2023-03-01T11:00:59;98057.03;;;15.47;26.38
75013;BME280;63567;49.956;20.130;2023-03-01T11:06:01;98063.75;;;17.74;23.75
75013;BME280;63567;49.956;20.130;2023-03-01T11:08:38;98057.63;;;18.71;21.65
75013;BME280;63567;49.956;20.130;2023-03-01T11:13:50;98050.03;;;21.56;19.96
75013;BME280;63567;49.956;20.130;2023-03-01T11:16:38;98053.59;;;23.29;17.77
75013;BME280;63567;49.956;20.130;2023-03-01T11:19:15;98046.09;;;24.26;16.96
75013;BME280;63567;49.956;20.130;2023-03-01T11:24:14;98042.88;;;25.05;16.18
75013;BME280;63567;49.956;20.130;2023-03-01T11:26:44;98042.84;;;25.80;15.02
75013;BME280;63567;49.956;20.130;2023-03-01T11:29:52;98039.47;;;27.04;13.87
75013;BME280;63567;49.956;20.130;2023-03-01T11:32:21;98035.19;;;27.29;13.72
75013;BME280;63567;49.956;20.130;2023-03-01T11:37:37;98039.00;;;25.66;13.57
75013;BME280;63567;49.956;20.130;2023-03-01T11:40:24;98034.50;;;25.07;14.48
75013;BME280;63567;49.956;20.130;2023-03-01T11:42:59;98032.47;;;24.37;15.20
75013;BME280;63567;49.956;20.130;2023-03-01T11:45:36;98024.38;;;22.70;16.25
75013;BME280;63567;49.956;20.130;2023-03-01T11:50:48;98022.34;;;20.66;20.35
75013;BME280;63567;49.956;20.130;2023-03-01T11:53:42;98010.84;;;22.48;18.12
75013;BME280;63567;49.956;20.130;2023-03-01T11:59:16;98008.00;;;24.17;14.67
75013;BME280;63567;49.956;20.130;2023-03-01T12:02:14;98009.09;;;26.35;13.41
75013;BME280;63567;49.956;20.130;2023-03-01T12:07:42;98005.41;;;27.03;13.27
75013;BME280;63567;49.956;20.130;2023-03-01T12:10:20;98006.97;;;29.68;11.21
75013;BME280;63567;49.956;20.130;2023-03-01T12:13:16;98000.38;;;30.79;10.04
75013;BME280;63567;49.956;20.130;2023-03-01T12:16:10;98004.81;;;29.94;9.43
75013;BME280;63567;49.956;20.130;2023-03-01T12:18:54;97989.09;;;29.38;9.37
75013;BME280;63567;49.956;20.130;2023-03-01T12:21:33;97993.81;;;30.47;9.18
75013;BME280;63567;49.956;20.130;2023-03-01T12:24:31;97990.81;;;29.82;8.61
75013;BME280;63567;49.956;20.130;2023-03-01T12:27:22;97986.41;;;32.07;7.82
75013;BME280;63567;49.956;20.130;2023-03-01T12:29:54;97986.59;;;31.55;8.08
75013;BME280;63567;49.956;20.130;2023-03-01T12:32:55;97977.00;;;33.08;8.12
75013;BME280;63567;49.956;20.130;2023-03-01T12:36:02;97983.19;;;33.23;7.37
75013;BME280;63567;49.956;20.130;2023-03-01T12:38:49;97968.25;;;31.47;7.73
75013;BME280;63567;49.956;20.130;2023-03-01T12:41:56;97967.47;;;29.57;8.62
75013;BME280;63567;49.956;20.130;2023-03-01T12:44:35;97966.00;;;30.69;8.12
75013;BME280;63567;49.956;20.130;2023-03-01T12:47:26;97965.78;;;32.01;8.30
75013;BME280;63567;49.956;20.130;2023-03-01T12:50:02;97960.44;;;29.80;9.22
75013;BME280;63567;49.956;20.130;2023-03-01T12:52:41;97956.94;;;30.93;8.66
75013;BME280;63567;49.956;20.130;2023-03-01T12:55:31;97959.88;;;31.71;8.08
75013;BME280;63567;49.956;20.130;2023-03-01T12:58:09;97958.19;;;29.58;8.18
75013;BME280;63567;49.956;20.130;2023-03-01T13:00:56;97958.16;;;28.75;8.29
75013;BME280;63567;49.956;20.130;2023-03-01T13:03:53;97961.22;;;29.56;8.86
75013;BME280;63567;49.956;20.130;2023-03-01T13:06:37;97957.91;;;30.64;9.59
75013;BME280;63567;49.956;20.130;2023-03-01T13:11:53;97943.31;;;28.97;9.72
75013;BME280;63567;49.956;20.130;2023-03-01T13:16:49;97945.38;;;28.81;10.28
75013;BME280;63567;49.956;20.130;2023-03-01T13:19:22;97949.91;;;30.35;9.25
75013;BME280;63567;49.956;20.130;2023-03-01T13:21:50;97944.75;;;30.34;8.87
75013;BME280;63567;49.956;20.130;2023-03-01T13:24:29;97949.81;;;30.40;9.24
75013;BME280;63567;49.956;20.130;2023-03-01T13:27:09;97948.44;;;29.57;9.77
75013;BME280;63567;49.956;20.130;2023-03-01T13:29:52;97947.66;;;30.75;8.62
75013;BME280;63567;49.956;20.130;2023-03-01T13:32:30;97942.78;;;28.21;10.26
75013;BME280;63567;49.956;20.130;2023-03-01T13:37:31;97936.75;;;25.21;12.55
75013;BME280;63567;49.956;20.130;2023-03-01T13:39:59;97937.16;;;27.47;10.84
75013;BME280;63567;49.956;20.130;2023-03-01T13:42:36;97935.78;;;28.59;9.94
75013;BME280;63567;49.956;20.130;2023-03-01T13:45:17;97935.31;;;28.86;9.74
75013;BME280;63567;49.956;20.130;2023-03-01T13:47:44;97933.97;;;27.24;10.39
75013;BME280;63567;49.956;20.130;2023-03-01T13:50:46;97922.59;;;27.17;10.42